createdAt,value
2019-03-30T00:00:05.100Z,987.39
2019-03-30T00:01:05.496Z,987.28
2019-03-30T00:02:04.508Z,987.28
2019-03-30T00:03:09.830Z,987.19
2019-03-30T00:04:05.258Z,987.17
2019-03-30T00:05:04.528Z,987.25
2019-03-30T00:06:04.665Z,987.25
2019-03-30T00:07:04.763Z,987.19
2019-03-30T00:08:05.089Z,987.22
2019-03-30T00:09:05.189Z,987.17
2019-03-30T00:10:05.293Z,987.25
2019-03-30T00:11:05.263Z,987.25
2019-03-30T00:12:05.280Z,987.06
2019-03-30T00:13:05.426Z,987.08
2019-03-30T00:14:04.670Z,987.22
2019-03-30T00:15:05.085Z,987.03
2019-03-30T00:16:05.047Z,987.08
2019-03-30T00:17:05.161Z,987.11
2019-03-30T00:18:05.184Z,987.14
2019-03-30T00:19:04.639Z,987.11
2019-03-30T00:20:04.724Z,987.14
2019-03-30T00:21:04.818Z,987.03
2019-03-30T00:22:05.111Z,987.06
2019-03-30T00:23:05.350Z,987.03
2019-03-30T00:24:05.400Z,987.00
2019-03-30T00:25:05.475Z,986.92
2019-03-30T00:26:05.019Z,987.01
2019-03-30T00:27:05.044Z,987.01
2019-03-30T00:28:05.023Z,986.92
2019-03-30T00:29:05.313Z,987.03
2019-03-30T00:30:04.851Z,987.12
2019-03-30T00:31:04.899Z,987.03
2019-03-30T00:32:04.816Z,986.98
2019-03-30T00:33:05.287Z,987.09
2019-03-30T00:34:04.950Z,987.06
2019-03-30T00:35:04.456Z,987.01
2019-03-30T00:36:04.519Z,986.95
2019-03-30T00:37:05.217Z,986.98
2019-03-30T00:38:04.533Z,987.01
2019-03-30T00:39:05.018Z,986.95
2019-03-30T00:40:05.394Z,987.03
2019-03-30T00:41:04.841Z,987.09
2019-03-30T00:42:04.842Z,987.09
2019-03-30T00:43:10.387Z,986.92
2019-03-30T00:44:04.930Z,986.98
2019-03-30T00:45:05.228Z,987.20
2019-03-30T00:46:04.833Z,986.98
2019-03-30T00:47:05.489Z,987.06
2019-03-30T00:48:04.604Z,987.09
2019-03-30T00:49:04.541Z,987.09
2019-03-30T00:50:04.959Z,987.03
2019-03-30T00:51:04.538Z,986.95
2019-03-30T00:52:04.934Z,986.92
2019-03-30T00:53:04.581Z,987.03
2019-03-30T00:54:04.831Z,987.03
2019-03-30T00:55:05.461Z,986.87
2019-03-30T00:56:04.688Z,986.98
2019-03-30T00:57:05.306Z,987.12
2019-03-30T00:58:05.658Z,986.89
2019-03-30T00:59:04.625Z,986.87
2019-03-30T01:00:05.244Z,986.89
2019-03-30T01:01:05.396Z,986.89
2019-03-30T01:02:05.466Z,986.92
2019-03-30T01:03:05.493Z,987.04
2019-03-30T01:04:05.194Z,986.92
2019-03-30T01:05:04.551Z,986.84
2019-03-30T01:06:04.976Z,986.92
2019-03-30T01:07:05.102Z,986.95
2019-03-30T01:08:04.681Z,986.87
2019-03-30T01:09:05.078Z,986.84
2019-03-30T01:10:05.170Z,986.90
2019-03-30T01:11:05.232Z,986.95
2019-03-30T01:12:05.366Z,986.98
2019-03-30T01:13:05.357Z,986.81
2019-03-30T01:14:05.487Z,986.87
2019-03-30T01:15:04.556Z,986.81
2019-03-30T01:16:05.105Z,987.09
2019-03-30T01:17:05.358Z,986.89
2019-03-30T01:18:05.323Z,986.92
2019-03-30T01:19:04.653Z,986.67
2019-03-30T01:20:04.734Z,986.78
2019-03-30T01:21:04.883Z,986.78
2019-03-30T01:22:04.960Z,986.70
2019-03-30T01:23:05.370Z,986.81
2019-03-30T01:24:04.506Z,986.78
2019-03-30T01:25:04.977Z,986.78
2019-03-30T01:26:05.177Z,986.81
2019-03-30T01:27:05.426Z,986.93
2019-03-30T01:28:05.591Z,986.87
2019-03-30T01:29:04.905Z,986.67
2019-03-30T01:30:05.316Z,986.81
2019-03-30T01:31:05.194Z,986.87
2019-03-30T01:32:05.270Z,986.90
2019-03-30T01:33:05.526Z,986.79
2019-03-30T01:34:04.899Z,986.70
2019-03-30T01:35:05.071Z,986.76
2019-03-30T01:36:05.377Z,986.70
2019-03-30T01:37:05.305Z,986.84
2019-03-30T01:38:04.732Z,986.73
2019-03-30T01:39:04.870Z,986.73
2019-03-30T01:40:04.644Z,986.71
2019-03-30T01:41:04.720Z,986.79
2019-03-30T01:42:04.786Z,986.76
2019-03-30T01:43:09.825Z,986.76
2019-03-30T01:44:05.329Z,986.68
2019-03-30T01:45:04.560Z,986.79
2019-03-30T01:46:05.031Z,986.68
2019-03-30T01:47:05.018Z,986.76
2019-03-30T01:48:05.318Z,986.68
2019-03-30T01:49:04.772Z,986.71
2019-03-30T01:50:18.022Z,986.74
2019-03-30T01:51:04.861Z,986.68
2019-03-30T01:52:04.961Z,986.71
2019-03-30T01:53:04.874Z,986.62
2019-03-30T01:54:05.044Z,986.62
2019-03-30T01:55:04.557Z,986.62
2019-03-30T01:56:04.535Z,986.57
2019-03-30T01:57:04.666Z,986.57
2019-03-30T01:58:04.712Z,986.55
2019-03-30T01:59:05.298Z,986.68
2019-03-30T02:00:05.454Z,986.63
2019-03-30T02:01:05.077Z,986.68
2019-03-30T02:02:05.018Z,986.57
2019-03-30T02:03:05.369Z,986.47
2019-03-30T02:04:05.494Z,986.50
2019-03-30T02:05:04.727Z,986.65
2019-03-30T02:06:05.259Z,986.55
2019-03-30T02:07:05.193Z,986.52
2019-03-30T02:08:05.339Z,986.57
2019-03-30T02:09:04.732Z,986.44
2019-03-30T02:10:04.690Z,986.47
2019-03-30T02:11:04.930Z,986.55
2019-03-30T02:12:05.268Z,986.50
2019-03-30T02:13:05.343Z,986.44
2019-03-30T02:14:04.586Z,986.55
2019-03-30T02:15:05.280Z,986.52
2019-03-30T02:16:05.196Z,986.57
2019-03-30T02:17:05.425Z,986.50
2019-03-30T02:18:05.488Z,986.57
2019-03-30T02:19:04.663Z,986.66
2019-03-30T02:20:04.762Z,986.41
2019-03-30T02:21:05.337Z,986.55
2019-03-30T02:22:05.455Z,986.50
2019-03-30T02:23:04.914Z,986.47
2019-03-30T02:24:05.314Z,986.60
2019-03-30T02:25:05.539Z,986.60
2019-03-30T02:26:04.738Z,986.57
2019-03-30T02:27:04.676Z,986.60
2019-03-30T02:28:07.401Z,986.63
2019-03-30T02:29:05.053Z,986.53
2019-03-30T02:30:05.581Z,986.36
2019-03-30T02:31:04.580Z,986.47
2019-03-30T02:32:04.628Z,986.44
2019-03-30T02:33:04.608Z,986.53
2019-03-30T02:34:05.089Z,986.47
2019-03-30T02:35:05.421Z,986.47
2019-03-30T02:36:04.984Z,986.44
2019-03-30T02:37:04.614Z,986.50
2019-03-30T02:38:04.733Z,986.41
2019-03-30T02:39:05.039Z,986.44
2019-03-30T02:40:04.523Z,986.47
2019-03-30T02:41:04.948Z,986.41
2019-03-30T02:42:05.222Z,986.55
2019-03-30T02:43:09.758Z,986.47
2019-03-30T02:44:05.187Z,986.39
2019-03-30T02:45:05.692Z,986.42
2019-03-30T02:46:05.004Z,986.42
2019-03-30T02:47:04.600Z,986.33
2019-03-30T02:48:04.905Z,986.28
2019-03-30T02:49:05.462Z,986.48
2019-03-30T02:50:04.758Z,986.34
2019-03-30T02:51:05.215Z,986.39
2019-03-30T02:52:05.037Z,986.39
2019-03-30T02:53:05.419Z,986.42
2019-03-30T02:54:05.479Z,986.39
2019-03-30T02:55:04.826Z,986.48
2019-03-30T02:56:05.098Z,986.53
2019-03-30T02:57:05.211Z,986.45
2019-03-30T02:58:05.408Z,986.54
2019-03-30T02:59:04.997Z,986.42
2019-03-30T03:00:05.456Z,986.48
2019-03-30T03:01:04.540Z,986.42
2019-03-30T03:02:04.597Z,986.34
2019-03-30T03:03:10.184Z,986.31
2019-03-30T03:04:04.638Z,986.31
2019-03-30T03:05:04.580Z,986.40
2019-03-30T03:06:05.199Z,986.37
2019-03-30T03:07:05.124Z,986.43
2019-03-30T03:08:04.680Z,986.48
2019-03-30T03:09:05.040Z,986.45
2019-03-30T03:10:05.346Z,986.29
2019-03-30T03:11:05.511Z,986.34
2019-03-30T03:12:05.620Z,986.34
2019-03-30T03:13:04.583Z,986.29
2019-03-30T03:14:04.804Z,986.37
2019-03-30T03:15:04.954Z,986.26
2019-03-30T03:16:04.633Z,986.26
2019-03-30T03:17:04.687Z,986.26
2019-03-30T03:18:04.907Z,986.32
2019-03-30T03:19:04.944Z,986.23
2019-03-30T03:20:05.357Z,986.26
2019-03-30T03:21:09.024Z,986.20
2019-03-30T03:22:04.597Z,986.20
2019-03-30T03:23:04.865Z,986.17
2019-03-30T03:24:04.939Z,986.06
2019-03-30T03:25:05.102Z,986.15
2019-03-30T03:26:05.552Z,986.31
2019-03-30T03:27:04.849Z,986.15
2019-03-30T03:28:05.140Z,986.26
2019-03-30T03:29:05.052Z,986.29
2019-03-30T03:30:05.228Z,986.15
2019-03-30T03:31:05.591Z,986.15
2019-03-30T03:32:05.098Z,985.98
2019-03-30T03:33:05.202Z,986.26
2019-03-30T03:34:05.480Z,986.26
2019-03-30T03:35:05.490Z,986.21
2019-03-30T03:36:04.745Z,986.21
2019-03-30T03:37:05.758Z,986.32
2019-03-30T03:38:05.476Z,986.23
2019-03-30T03:39:05.086Z,986.35
2019-03-30T03:40:04.952Z,986.12
2019-03-30T03:41:04.595Z,986.29
2019-03-30T03:42:04.677Z,986.23
2019-03-30T03:43:09.894Z,986.23
2019-03-30T03:44:05.457Z,986.29
2019-03-30T03:45:05.456Z,986.12
2019-03-30T03:46:04.540Z,986.23
2019-03-30T03:47:04.508Z,986.15
2019-03-30T03:48:05.043Z,986.26
2019-03-30T03:49:05.118Z,986.20
2019-03-30T03:50:04.676Z,986.20
2019-03-30T03:51:05.383Z,986.15
2019-03-30T03:52:05.407Z,986.09
2019-03-30T03:53:05.547Z,986.06
2019-03-30T03:54:05.439Z,986.34
2019-03-30T03:55:04.589Z,986.15
2019-03-30T03:56:04.799Z,986.20
2019-03-30T03:57:04.509Z,986.23
2019-03-30T03:58:04.821Z,986.17
2019-03-30T03:59:05.193Z,986.17
2019-03-30T04:00:05.444Z,986.15
2019-03-30T04:01:05.208Z,986.26
2019-03-30T04:02:04.606Z,986.20
2019-03-30T04:03:04.595Z,986.23
2019-03-30T04:04:04.897Z,986.23
2019-03-30T04:05:05.103Z,986.18
2019-03-30T04:06:05.479Z,986.12
2019-03-30T04:07:04.836Z,986.26
2019-03-30T04:08:04.974Z,986.26
2019-03-30T04:09:05.419Z,986.09
2019-03-30T04:10:04.783Z,986.21
2019-03-30T04:11:04.925Z,986.23
2019-03-30T04:12:10.031Z,986.32
2019-03-30T04:13:07.651Z,986.29
2019-03-30T04:14:05.400Z,986.18
2019-03-30T04:15:04.891Z,986.24
2019-03-30T04:16:05.058Z,986.29
2019-03-30T04:17:05.181Z,986.32
2019-03-30T04:18:04.945Z,986.12
2019-03-30T04:19:05.118Z,986.15
2019-03-30T04:20:04.656Z,986.24
2019-03-30T04:21:05.203Z,986.18
2019-03-30T04:22:04.759Z,986.21
2019-03-30T04:23:05.160Z,986.10
2019-03-30T04:24:05.614Z,986.01
2019-03-30T04:25:04.497Z,986.15
2019-03-30T04:26:04.934Z,986.18
2019-03-30T04:27:04.598Z,985.96
2019-03-30T04:28:04.579Z,986.02
2019-03-30T04:29:04.739Z,986.16
2019-03-30T04:30:04.848Z,986.10
2019-03-30T04:31:05.160Z,986.21
2019-03-30T04:32:04.888Z,986.21
2019-03-30T04:33:05.010Z,986.05
2019-03-30T04:34:04.811Z,986.07
2019-03-30T04:35:04.780Z,986.05
2019-03-30T04:36:04.772Z,986.10
2019-03-30T04:37:05.381Z,986.02
2019-03-30T04:38:05.450Z,986.19
2019-03-30T04:39:04.711Z,986.08
2019-03-30T04:40:04.852Z,986.02
2019-03-30T04:41:05.450Z,986.07
2019-03-30T04:42:04.712Z,986.02
2019-03-30T04:43:10.511Z,986.07
2019-03-30T04:44:05.116Z,986.05
2019-03-30T04:45:05.108Z,986.02
2019-03-30T04:46:05.221Z,985.99
2019-03-30T04:47:05.259Z,986.05
2019-03-30T04:48:04.985Z,986.19
2019-03-30T04:49:05.366Z,985.99
2019-03-30T04:50:05.372Z,986.05
2019-03-30T04:51:05.631Z,986.02
2019-03-30T04:52:05.039Z,985.88
2019-03-30T04:53:04.744Z,985.96
2019-03-30T04:54:05.401Z,985.85
2019-03-30T04:55:05.089Z,985.91
2019-03-30T04:56:04.737Z,985.91
2019-03-30T04:57:04.801Z,985.91
2019-03-30T04:58:05.211Z,985.91
2019-03-30T04:59:05.404Z,985.80
2019-03-30T05:00:04.482Z,986.02
2019-03-30T05:01:04.785Z,986.02
2019-03-30T05:02:05.059Z,985.82
2019-03-30T05:03:05.457Z,985.91
2019-03-30T05:04:04.599Z,985.94
2019-03-30T05:05:04.712Z,985.88
2019-03-30T05:06:04.681Z,986.11
2019-03-30T05:07:05.259Z,985.80
2019-03-30T05:08:06.169Z,985.99
2019-03-30T05:09:05.522Z,985.85
2019-03-30T05:10:04.899Z,985.80
2019-03-30T05:11:04.799Z,985.77
2019-03-30T05:12:05.434Z,985.72
2019-03-30T05:13:05.406Z,985.77
2019-03-30T05:14:04.622Z,985.77
2019-03-30T05:15:04.717Z,985.88
2019-03-30T05:16:04.812Z,985.85
2019-03-30T05:17:05.447Z,985.72
2019-03-30T05:18:05.054Z,985.74
2019-03-30T05:19:05.323Z,985.77
2019-03-30T05:20:05.472Z,985.77
2019-03-30T05:21:04.927Z,985.69
2019-03-30T05:22:16.291Z,985.74
2019-03-30T05:23:05.287Z,985.74
2019-03-30T05:24:04.879Z,985.85
2019-03-30T05:25:05.986Z,985.85
2019-03-30T05:26:05.440Z,985.66
2019-03-30T05:27:05.626Z,985.74
2019-03-30T05:28:05.141Z,985.82
2019-03-30T05:29:05.091Z,985.68
2019-03-30T05:30:05.240Z,985.68
2019-03-30T05:31:04.973Z,985.79
2019-03-30T05:32:05.265Z,985.71
2019-03-30T05:33:06.756Z,985.65
2019-03-30T05:34:05.059Z,985.79
2019-03-30T05:35:05.408Z,985.70
2019-03-30T05:36:04.808Z,985.81
2019-03-30T05:37:05.017Z,985.75
2019-03-30T05:38:04.713Z,985.78
2019-03-30T05:39:05.412Z,985.81
2019-03-30T05:40:05.451Z,985.86
2019-03-30T05:41:04.504Z,985.75
2019-03-30T05:42:05.572Z,985.86
2019-03-30T05:43:10.368Z,985.71
2019-03-30T05:44:04.927Z,985.77
2019-03-30T05:45:05.399Z,985.88
2019-03-30T05:46:04.637Z,985.82
2019-03-30T05:47:04.910Z,985.76
2019-03-30T05:48:05.016Z,985.84
2019-03-30T05:49:05.170Z,985.95
2019-03-30T05:50:05.238Z,985.95
2019-03-30T05:51:04.802Z,985.97
2019-03-30T05:52:04.767Z,985.89
2019-03-30T05:53:05.154Z,985.85
2019-03-30T05:54:04.454Z,986.10
2019-03-30T05:55:04.839Z,985.90
2019-03-30T05:56:05.131Z,986.10
2019-03-30T05:57:05.685Z,986.01
2019-03-30T05:58:04.682Z,986.01
2019-03-30T05:59:05.536Z,985.86
2019-03-30T06:00:04.771Z,985.83
2019-03-30T06:01:04.926Z,985.85
2019-03-30T06:02:05.485Z,985.99
2019-03-30T06:03:04.595Z,985.87
2019-03-30T06:04:04.807Z,985.95
2019-03-30T06:05:09.988Z,985.89
2019-03-30T06:06:05.424Z,985.95
2019-03-30T06:07:05.065Z,986.00
2019-03-30T06:08:05.307Z,985.94
2019-03-30T06:09:05.460Z,985.91
2019-03-30T06:10:04.623Z,985.96
2019-03-30T06:11:04.781Z,986.01
2019-03-30T06:12:05.486Z,985.84
2019-03-30T06:13:05.637Z,986.00
2019-03-30T06:14:04.713Z,985.94
2019-03-30T06:15:04.885Z,985.82
2019-03-30T06:16:05.010Z,986.04
2019-03-30T06:17:05.108Z,985.96
2019-03-30T06:18:04.822Z,985.92
2019-03-30T06:19:05.367Z,985.92
2019-03-30T06:20:04.566Z,985.95
2019-03-30T06:21:05.208Z,985.97
2019-03-30T06:22:05.309Z,986.00
2019-03-30T06:23:05.282Z,985.91
2019-03-30T06:24:05.465Z,986.02
2019-03-30T06:25:04.689Z,985.87
2019-03-30T06:26:04.962Z,985.98
2019-03-30T06:27:04.932Z,985.95
2019-03-30T06:28:05.322Z,986.06
2019-03-30T06:29:04.850Z,985.92
2019-03-30T06:30:05.506Z,986.00
2019-03-30T06:31:04.607Z,985.86
2019-03-30T06:32:05.326Z,985.77
2019-03-30T06:33:05.653Z,985.91
2019-03-30T06:34:04.579Z,985.99
2019-03-30T06:35:04.695Z,985.93
2019-03-30T06:36:04.921Z,985.93
2019-03-30T06:37:05.231Z,985.93
2019-03-30T06:38:04.882Z,985.81
2019-03-30T06:39:05.022Z,985.81
2019-03-30T06:40:04.806Z,985.81
2019-03-30T06:41:05.174Z,986.06
2019-03-30T06:42:04.739Z,986.03
2019-03-30T06:43:08.210Z,986.08
2019-03-30T06:44:04.938Z,985.97
2019-03-30T06:45:05.112Z,985.91
2019-03-30T06:46:04.700Z,985.99
2019-03-30T06:47:04.695Z,985.94
2019-03-30T06:48:05.544Z,985.82
2019-03-30T06:49:04.565Z,986.02
2019-03-30T06:50:04.657Z,985.84
2019-03-30T06:51:05.345Z,985.84
2019-03-30T06:52:05.821Z,985.78
2019-03-30T06:53:05.310Z,985.87
2019-03-30T06:54:04.933Z,985.84
2019-03-30T06:55:04.977Z,986.01
2019-03-30T06:56:05.472Z,985.92
2019-03-30T06:57:04.904Z,985.97
2019-03-30T06:58:05.244Z,985.83
2019-03-30T06:59:04.986Z,985.97
2019-03-30T07:00:05.026Z,985.83
2019-03-30T07:01:05.231Z,986.05
2019-03-30T07:02:04.926Z,985.94
2019-03-30T07:03:04.563Z,985.91
2019-03-30T07:04:04.810Z,985.96
2019-03-30T07:05:05.004Z,985.93
2019-03-30T07:06:04.592Z,986.02
2019-03-30T07:07:05.106Z,985.90
2019-03-30T07:08:05.237Z,985.96
2019-03-30T07:09:05.255Z,985.93
2019-03-30T07:10:04.897Z,986.02
2019-03-30T07:11:05.019Z,985.87
2019-03-30T07:12:05.174Z,985.96
2019-03-30T07:13:09.825Z,985.87
2019-03-30T07:14:05.499Z,985.78
2019-03-30T07:15:05.366Z,985.90
2019-03-30T07:16:05.486Z,985.87
2019-03-30T07:17:05.606Z,985.90
2019-03-30T07:18:05.229Z,986.04
2019-03-30T07:19:05.395Z,985.90
2019-03-30T07:20:05.007Z,985.87
2019-03-30T07:21:04.735Z,985.87
2019-03-30T07:22:05.182Z,985.92
2019-03-30T07:23:12.892Z,985.92
2019-03-30T07:24:04.723Z,985.86
2019-03-30T07:25:05.039Z,985.78
2019-03-30T07:26:05.484Z,985.86
2019-03-30T07:27:04.747Z,985.74
2019-03-30T07:28:05.102Z,985.80
2019-03-30T07:29:04.902Z,985.97
2019-03-30T07:30:05.048Z,985.74
2019-03-30T07:31:04.768Z,985.80
2019-03-30T07:32:05.067Z,985.80
2019-03-30T07:33:05.384Z,985.74
2019-03-30T07:34:05.278Z,985.80
2019-03-30T07:35:05.045Z,985.71
2019-03-30T07:36:05.147Z,985.74
2019-03-30T07:37:05.389Z,985.74
2019-03-30T07:38:05.424Z,985.68
2019-03-30T07:39:04.980Z,985.71
2019-03-30T07:40:04.912Z,985.65
2019-03-30T07:41:04.879Z,985.53
2019-03-30T07:42:05.087Z,985.56
2019-03-30T07:43:10.246Z,985.76
2019-03-30T07:44:04.858Z,985.59
2019-03-30T07:45:04.950Z,985.76
2019-03-30T07:46:05.216Z,985.64
2019-03-30T07:47:05.484Z,985.79
2019-03-30T07:48:04.702Z,985.61
2019-03-30T07:49:04.862Z,985.64
2019-03-30T07:50:05.038Z,985.70
2019-03-30T07:51:04.751Z,985.64
2019-03-30T07:52:05.580Z,985.53
2019-03-30T07:53:04.997Z,985.61
2019-03-30T07:54:04.944Z,985.75
2019-03-30T07:55:04.902Z,985.64
2019-03-30T07:56:09.207Z,985.67
2019-03-30T07:57:17.320Z,985.58
2019-03-30T07:58:05.450Z,985.81
2019-03-30T07:59:04.785Z,985.70
2019-03-30T08:00:05.080Z,985.75
2019-03-30T08:01:05.237Z,985.75
2019-03-30T08:02:04.691Z,985.70
2019-03-30T08:03:04.873Z,985.78
2019-03-30T08:04:05.351Z,985.78
2019-03-30T08:05:04.941Z,985.69
2019-03-30T08:06:04.654Z,985.78
2019-03-30T08:07:04.616Z,985.81
2019-03-30T08:08:05.296Z,985.72
2019-03-30T08:09:04.712Z,985.75
2019-03-30T08:10:05.064Z,985.74
2019-03-30T08:11:05.503Z,985.74
2019-03-30T08:12:04.885Z,985.77
2019-03-30T08:13:04.955Z,985.83
2019-03-30T08:14:04.705Z,985.65
2019-03-30T08:15:05.197Z,985.74
2019-03-30T08:16:04.680Z,985.77
2019-03-30T08:17:04.870Z,985.65
2019-03-30T08:18:04.947Z,985.68
2019-03-30T08:19:05.430Z,985.73
2019-03-30T08:20:04.771Z,985.67
2019-03-30T08:21:04.821Z,985.64
2019-03-30T08:22:05.445Z,985.81
2019-03-30T08:23:04.677Z,985.70
2019-03-30T08:24:04.832Z,985.70
2019-03-30T08:25:05.294Z,985.69
2019-03-30T08:26:05.501Z,985.84
2019-03-30T08:27:04.595Z,985.61
2019-03-30T08:28:05.435Z,985.58
2019-03-30T08:29:04.958Z,985.69
2019-03-30T08:30:05.073Z,985.72
2019-03-30T08:31:05.097Z,985.72
2019-03-30T08:32:05.313Z,985.78
2019-03-30T08:33:05.301Z,985.57
2019-03-30T08:34:05.371Z,985.69
2019-03-30T08:35:04.516Z,985.66
2019-03-30T08:36:04.739Z,985.74
2019-03-30T08:37:05.377Z,985.72
2019-03-30T08:38:04.783Z,985.71
2019-03-30T08:39:04.845Z,985.71
2019-03-30T08:40:04.972Z,985.83
2019-03-30T08:41:05.247Z,985.83
2019-03-30T08:42:04.638Z,985.74
2019-03-30T08:43:10.030Z,985.77
2019-03-30T08:44:05.532Z,985.77
2019-03-30T08:45:04.869Z,985.59
2019-03-30T08:46:05.007Z,985.73
2019-03-30T08:47:05.398Z,985.71
2019-03-30T08:48:04.980Z,985.67
2019-03-30T08:49:05.413Z,985.65
2019-03-30T08:50:04.703Z,985.64
2019-03-30T08:51:05.231Z,985.61
2019-03-30T08:52:04.771Z,985.67
2019-03-30T08:53:05.237Z,985.61
2019-03-30T08:54:05.153Z,985.64
2019-03-30T08:55:04.805Z,985.64
2019-03-30T08:56:05.169Z,985.55
2019-03-30T08:57:05.436Z,985.52
2019-03-30T08:58:05.353Z,985.58
2019-03-30T08:59:05.461Z,985.41
2019-03-30T09:00:04.745Z,985.58
2019-03-30T09:01:04.900Z,985.72
2019-03-30T09:02:05.513Z,985.58
2019-03-30T09:03:05.116Z,985.61
2019-03-30T09:04:04.549Z,985.55
2019-03-30T09:05:04.651Z,985.58
2019-03-30T09:06:05.159Z,985.63
2019-03-30T09:07:04.966Z,985.66
2019-03-30T09:08:05.348Z,985.52
2019-03-30T09:09:05.484Z,985.49
2019-03-30T09:10:04.915Z,985.69
2019-03-30T09:11:05.386Z,985.51
2019-03-30T09:12:04.614Z,985.48
2019-03-30T09:13:04.717Z,985.63
2019-03-30T09:14:05.223Z,985.51
2019-03-30T09:15:05.638Z,985.51
2019-03-30T09:16:04.747Z,985.51
2019-03-30T09:17:05.438Z,985.45
2019-03-30T09:18:04.736Z,985.56
2019-03-30T09:19:04.765Z,985.50
2019-03-30T09:20:05.263Z,985.48
2019-03-30T09:21:05.468Z,985.56
2019-03-30T09:22:04.714Z,985.47
2019-03-30T09:23:05.649Z,985.53
2019-03-30T09:24:10.632Z,985.47
2019-03-30T09:25:05.449Z,985.61
2019-03-30T09:26:05.492Z,985.50
2019-03-30T09:27:04.752Z,985.38
2019-03-30T09:28:04.757Z,985.61
2019-03-30T09:29:04.968Z,985.52
2019-03-30T09:30:05.281Z,985.52
2019-03-30T09:31:05.074Z,985.43
2019-03-30T09:32:15.224Z,985.30
2019-03-30T09:33:04.837Z,985.34
2019-03-30T09:34:05.207Z,985.27
2019-03-30T09:35:05.388Z,985.37
2019-03-30T09:36:05.335Z,985.29
2019-03-30T09:37:05.028Z,985.26
2019-03-30T09:38:05.331Z,985.29
2019-03-30T09:39:05.384Z,985.37
2019-03-30T09:40:05.246Z,985.34
2019-03-30T09:41:05.473Z,985.29
2019-03-30T09:42:04.535Z,985.26
2019-03-30T09:43:09.730Z,985.28
2019-03-30T09:44:05.244Z,985.14
2019-03-30T09:45:05.264Z,985.11
2019-03-30T09:46:04.500Z,985.23
2019-03-30T09:47:05.083Z,985.20
2019-03-30T09:48:05.310Z,985.22
2019-03-30T09:49:04.813Z,985.25
2019-03-30T09:50:04.967Z,985.19
2019-03-30T09:51:05.165Z,985.11
2019-03-30T09:52:04.703Z,985.31
2019-03-30T09:53:04.847Z,985.08
2019-03-30T09:54:04.968Z,985.13
2019-03-30T09:55:05.352Z,985.22
2019-03-30T09:56:04.594Z,985.16
2019-03-30T09:57:04.857Z,985.28
2019-03-30T09:58:04.882Z,985.13
2019-03-30T09:59:05.070Z,985.30
2019-03-30T10:00:05.337Z,985.13
2019-03-30T10:01:05.105Z,985.10
2019-03-30T10:02:04.669Z,985.10
2019-03-30T10:03:10.023Z,985.13
2019-03-30T10:04:04.450Z,985.13
2019-03-30T10:05:04.778Z,985.18
2019-03-30T10:06:05.042Z,985.21
2019-03-30T10:07:05.301Z,985.07
2019-03-30T10:08:05.427Z,985.09
2019-03-30T10:09:04.596Z,985.21
2019-03-30T10:10:05.098Z,985.03
2019-03-30T10:11:04.860Z,985.09
2019-03-30T10:12:05.404Z,985.09
2019-03-30T10:13:05.489Z,985.06
2019-03-30T10:14:05.039Z,985.09
2019-03-30T10:15:05.134Z,984.97
2019-03-30T10:16:04.850Z,985.18
2019-03-30T10:17:05.081Z,985.06
2019-03-30T10:18:04.836Z,985.12
2019-03-30T10:19:04.807Z,985.09
2019-03-30T10:20:05.764Z,985.03
2019-03-30T10:21:04.540Z,985.09
2019-03-30T10:22:05.426Z,984.97
2019-03-30T10:23:04.664Z,985.00
2019-03-30T10:24:04.682Z,985.03
2019-03-30T10:25:05.112Z,985.05
2019-03-30T10:26:04.615Z,985.08
2019-03-30T10:27:04.790Z,985.00
2019-03-30T10:28:05.034Z,984.97
2019-03-30T10:29:05.359Z,985.08
2019-03-30T10:30:05.462Z,985.08
2019-03-30T10:31:04.749Z,984.91
2019-03-30T10:32:04.959Z,984.96
2019-03-30T10:33:05.490Z,985.08
2019-03-30T10:34:04.965Z,984.90
2019-03-30T10:35:05.582Z,985.02
2019-03-30T10:36:04.817Z,984.99
2019-03-30T10:37:05.258Z,984.90
2019-03-30T10:38:04.828Z,985.02
2019-03-30T10:39:05.205Z,984.77
2019-03-30T10:40:05.128Z,984.84
2019-03-30T10:41:05.347Z,984.79
2019-03-30T10:42:04.509Z,984.90
2019-03-30T10:43:10.023Z,984.84
2019-03-30T10:44:05.358Z,984.81
2019-03-30T10:45:04.888Z,984.74
2019-03-30T10:46:04.709Z,984.78
2019-03-30T10:47:04.824Z,984.74
2019-03-30T10:48:05.159Z,984.74
2019-03-30T10:49:05.519Z,984.81
2019-03-30T10:50:04.923Z,984.76
2019-03-30T10:51:05.243Z,984.73
2019-03-30T10:52:05.623Z,984.65
2019-03-30T10:53:04.572Z,984.62
2019-03-30T10:54:05.294Z,984.73
2019-03-30T10:55:05.324Z,984.64
2019-03-30T10:56:04.815Z,984.67
2019-03-30T10:57:05.050Z,984.73
2019-03-30T10:58:05.526Z,984.64
2019-03-30T10:59:05.071Z,984.64
2019-03-30T11:00:05.422Z,984.64
2019-03-30T11:01:05.315Z,984.64
2019-03-30T11:02:04.826Z,984.56
2019-03-30T11:03:05.063Z,984.56
2019-03-30T11:04:04.809Z,984.67
2019-03-30T11:05:04.944Z,984.61
2019-03-30T11:06:05.024Z,984.61
2019-03-30T11:07:04.614Z,984.55
2019-03-30T11:08:04.938Z,984.64
2019-03-30T11:09:05.198Z,984.61
2019-03-30T11:10:05.375Z,984.58
2019-03-30T11:11:04.649Z,984.49
2019-03-30T11:12:10.204Z,984.41
2019-03-30T11:13:04.641Z,984.61
2019-03-30T11:14:04.876Z,984.49
2019-03-30T11:15:04.530Z,984.46
2019-03-30T11:16:05.172Z,984.49
2019-03-30T11:17:05.549Z,984.34
2019-03-30T11:18:05.122Z,984.49
2019-03-30T11:19:05.446Z,984.52
2019-03-30T11:20:04.659Z,984.49
2019-03-30T11:21:05.362Z,984.43
2019-03-30T11:22:05.558Z,984.49
2019-03-30T11:23:04.513Z,984.43
2019-03-30T11:24:07.175Z,984.40
2019-03-30T11:25:09.114Z,984.28
2019-03-30T11:26:04.890Z,984.43
2019-03-30T11:27:04.984Z,984.40
2019-03-30T11:28:04.966Z,984.40
2019-03-30T11:30:05.325Z,984.43
2019-03-30T11:31:06.004Z,984.31
2019-03-30T11:32:05.391Z,984.43
2019-03-30T11:33:05.613Z,984.31
2019-03-30T11:34:05.881Z,984.37
2019-03-30T11:35:04.656Z,984.25
2019-03-30T11:36:05.043Z,984.11
2019-03-30T11:37:05.148Z,984.22
2019-03-30T11:38:05.069Z,984.34
2019-03-30T11:39:04.641Z,984.22
2019-03-30T11:40:05.507Z,984.08
2019-03-30T11:41:04.473Z,984.13
2019-03-30T11:42:04.647Z,984.13
2019-03-30T11:43:09.869Z,984.28
2019-03-30T11:44:05.338Z,984.19
2019-03-30T11:45:04.664Z,984.13
2019-03-30T11:46:04.850Z,984.02
2019-03-30T11:47:05.134Z,984.10
2019-03-30T11:48:04.798Z,984.13
2019-03-30T11:49:05.160Z,984.04
2019-03-30T11:50:05.302Z,984.07
2019-03-30T11:51:05.418Z,984.13
2019-03-30T11:52:04.646Z,984.04
2019-03-30T11:53:04.795Z,984.18
2019-03-30T11:54:05.842Z,984.12
2019-03-30T11:55:04.600Z,984.07
2019-03-30T11:56:04.674Z,984.12
2019-03-30T11:57:05.195Z,984.01
2019-03-30T11:58:04.876Z,983.98
2019-03-30T11:59:05.097Z,983.95
2019-03-30T12:00:05.194Z,984.03
2019-03-30T12:01:05.350Z,984.06
2019-03-30T12:02:05.367Z,984.03
2019-03-30T12:03:04.693Z,984.06
2019-03-30T12:04:04.821Z,983.89
2019-03-30T12:05:04.956Z,983.95
2019-03-30T12:06:04.949Z,983.83
2019-03-30T12:07:05.318Z,983.92
2019-03-30T12:08:05.490Z,983.89
2019-03-30T12:09:04.519Z,983.95
2019-03-30T12:10:04.848Z,983.77
2019-03-30T12:11:04.826Z,983.94
2019-03-30T12:12:04.945Z,983.92
2019-03-30T12:13:05.374Z,983.83
2019-03-30T12:14:05.564Z,983.77
2019-03-30T12:15:04.592Z,983.91
2019-03-30T12:16:05.521Z,983.80
2019-03-30T12:17:04.561Z,983.80
2019-03-30T12:18:05.194Z,983.91
2019-03-30T12:19:05.215Z,983.71
2019-03-30T12:20:04.813Z,983.71
2019-03-30T12:21:05.542Z,983.68
2019-03-30T12:22:04.986Z,983.83
2019-03-30T12:23:04.703Z,983.60
2019-03-30T12:24:05.112Z,983.62
2019-03-30T12:25:04.503Z,983.60
2019-03-30T12:26:05.088Z,983.57
2019-03-30T12:27:05.290Z,983.62
2019-03-30T12:28:04.850Z,983.74
2019-03-30T12:29:04.623Z,983.59